Time;durP1;ratioP1;P1;durP2;ratioP2;P2;SDS_P1;SDS_P2;PMS_P1;PMS_P2;Temp;Humidity;BMP_temperature;BMP_pressure;BME280_temperature;BME280_humidity;BME280_pressure;Samples;Min_cycle;Max_cycle;Signal;HPM_P1;HPM_P2
2022/04/26 03:36:48;;;;;;;;;55.00;41.50;;;;;12.09;56.43;101426.06;2368164;28;45337;-77
2022/04/26 03:37:58;;;;;;;;;53.25;43.00;;;;;12.08;56.46;101426.94;2394360;28;46586;-77
2022/04/26 03:39:09;;;;;;;;;49.75;40.75;;;;;12.09;56.64;101423.41;2394608;28;45414;-77
2022/04/26 03:40:20;;;;;;;;;46.50;37.50;;;;;12.07;56.63;101424.38;2394513;28;46089;-77
2022/04/26 03:41:31;;;;;;;;;48.50;38.50;;;;;12.09;56.62;101417.28;2394703;28;44701;-77
2022/04/26 03:42:41;;;;;;;;;52.75;40.75;;;;;12.07;57.05;101414.69;2394000;28;45342;-77
2022/04/26 03:43:52;;;;;;;;;51.75;42.00;;;;;12.05;56.63;101416.47;2398876;28;44767;-77
2022/04/26 03:45:02;;;;;;;;;48.75;41.00;;;;;12.04;56.84;101417.41;2402441;28;46283;-77
2022/04/26 03:46:13;;;;;;;;;49.00;38.50;;;;;12.02;56.83;101425.38;2404183;28;45230;-77
2022/04/26 03:47:23;;;;;;;;;52.50;38.75;;;;;12.02;56.93;101416.59;2396724;28;46073;-77
2022/04/26 03:48:33;;;;;;;;;51.00;39.75;;;;;12.01;56.80;101422.75;2394635;28;45322;-77
2022/04/26 03:49:44;;;;;;;;;50.75;41.50;;;;;12.01;56.85;101422.75;2394062;28;45289;-77
2022/04/26 03:50:55;;;;;;;;;47.50;38.00;;;;;12.01;57.01;101425.41;2394657;28;45460;-77
2022/04/26 03:52:05;;;;;;;;;42.50;37.00;;;;;12.00;56.84;101424.53;2394428;28;45369;-76
2022/04/26 03:53:16;;;;;;;;;45.75;40.50;;;;;12.00;57.08;101431.59;2398310;28;44769;-76
2022/04/26 03:54:27;;;;;;;;;55.25;41.50;;;;;11.96;56.97;101424.66;2394545;28;45211;-76
2022/04/26 03:55:37;;;;;;;;;53.25;41.75;;;;;11.91;57.02;101425.66;2384388;28;45305;-77
2022/04/26 03:56:48;;;;;;;;;49.75;38.75;;;;;11.92;57.10;101426.53;2387289;28;45502;-76
2022/04/26 03:57:59;;;;;;;;;50.75;37.50;;;;;11.89;56.91;101427.47;2394682;28;45409;-76
2022/04/26 03:59:09;;;;;;;;;54.25;41.00;;;;;11.90;57.18;101425.72;2394309;28;45473;-76
2022/04/26 04:00:20;;;;;;;;;47.75;39.50;;;;;11.88;57.25;101431.00;2392891;28;45522;-76
2022/04/26 04:01:30;;;;;;;;;52.75;40.25;;;;;11.89;57.31;101427.47;2394401;28;46159;-76
2022/04/26 04:02:41;;;;;;;;;53.00;41.00;;;;;11.88;57.21;101428.38;2394516;28;44735;-76
2022/04/26 04:03:51;;;;;;;;;49.75;40.50;;;;;11.89;57.25;101429.25;2394329;28;45343;-76
2022/04/26 04:05:01;;;;;;;;;51.00;40.75;;;;;11.87;57.37;101429.28;2394290;28;45366;-76
2022/04/26 04:06:12;;;;;;;;;54.00;42.25;;;;;11.88;57.38;101428.38;2394401;28;45264;-78
2022/04/26 04:07:22;;;;;;;;;46.00;37.75;;;;;11.86;57.32;101424.91;2394647;28;45349;-78
2022/04/26 04:08:33;;;;;;;;;53.00;41.50;;;;;11.86;57.21;101430.19;2394107;28;46277;-77
2022/04/26 04:09:43;;;;;;;;;49.50;39.75;;;;;11.86;57.36;101432.81;2394609;28;45656;-78
2022/04/26 04:10:54;;;;;;;;;51.25;40.50;;;;;11.81;57.39;101429.44;2394245;28;46191;-78
2022/04/26 04:12:05;;;;;;;;;49.00;39.50;;;;;11.81;57.71;101429.44;2384296;28;45228;-78
2022/04/26 04:13:16;;;;;;;;;47.50;39.00;;;;;11.81;57.60;101432.06;2387127;28;46495;-78
2022/04/26 04:14:26;;;;;;;;;52.25;40.50;;;;;11.79;57.28;101428.63;2394482;28;45200;-79
2022/04/26 04:15:37;;;;;;;;;54.25;42.00;;;;;11.81;57.82;101437.34;2394296;28;46147;-78
2022/04/26 04:16:47;;;;;;;;;54.00;43.75;;;;;11.78;57.57;101434.78;2393581;28;44814;-78
2022/04/26 04:17:58;;;;;;;;;54.25;41.75;;;;;11.79;57.69;101436.53;2402767;28;45336;-78
2022/04/26 04:19:24;;;;;;;;;50.00;41.50;;;;;11.77;57.66;101433.06;2400114;28;44803;-78
2022/04/26 04:20:35;;;;;;;;;52.00;40.75;;;;;11.76;57.73;101432.19;2394119;28;45299;-79
2022/04/26 04:21:47;;;;;;;;;50.50;40.25;;;;;11.74;57.72;101430.50;2394255;28;45254;-77
2022/04/26 04:22:57;;;;;;;;;56.75;43.25;;;;;11.75;57.46;101437.53;2394041;28;45365;-77
2022/04/26 04:24:07;;;;;;;;;52.25;41.50;;;;;11.73;57.69;101434.91;2394535;28;45235;-77
2022/04/26 04:25:18;;;;;;;;;51.75;41.50;;;;;11.77;57.79;101440.97;2394210;28;45493;-77
2022/04/26 04:26:28;;;;;;;;;51.00;41.75;;;;;11.74;58.04;101435.78;2394414;28;45465;-77
2022/04/26 04:27:39;;;;;;;;;51.00;39.75;;;;;11.74;57.98;101443.69;2394318;28;45248;-78
2022/04/26 04:28:49;;;;;;;;;50.00;39.50;;;;;11.75;57.98;101450.69;2394217;28;45414;-77
2022/04/26 04:30:02;;;;;;;;;54.50;43.25;;;;;11.76;58.02;101452.41;2396992;28;46254;-77
2022/04/26 04:31:13;;;;;;;;;45.50;36.50;;;;;11.74;57.95;101451.56;2394497;28;45224;-76
2022/04/26 04:32:23;;;;;;;;;59.25;44.75;;;;;11.75;57.92;101450.69;2394266;28;46181;-76
2022/04/26 04:33:33;;;;;;;;;51.00;38.75;;;;;11.74;58.07;101452.44;2392506;28;44975;-76
2022/04/26 04:34:44;;;;;;;;;56.75;44.75;;;;;11.76;57.97;101452.41;2403363;28;46373;-82
2022/04/26 04:35:54;;;;;;;;;55.00;43.25;;;;;11.77;58.07;101451.50;2396671;28;45309;-80
2022/04/26 04:37:05;;;;;;;;;52.00;39.50;;;;;11.76;57.98;101457.66;2394164;28;45295;-80
2022/04/26 04:38:15;;;;;;;;;55.75;42.25;;;;;11.75;57.92;101456.81;2394218;28;45212;-80
2022/04/26 04:39:27;;;;;;;;;55.00;41.75;;;;;11.75;57.96;101456.81;2386774;28;45533;-79
2022/04/26 04:40:37;;;;;;;;;51.00;40.50;;;;;11.73;58.14;101458.59;2388576;28;45168;-79
2022/04/26 04:41:47;;;;;;;;;50.50;41.50;;;;;11.72;58.27;101462.16;2394080;28;46458;-80
2022/04/26 04:42:58;;;;;;;;;58.00;46.25;;;;;11.69;57.99;101463.09;2394309;28;45171;-79
2022/04/26 04:44:08;;;;;;;;;52.75;42.00;;;;;11.69;58.16;101463.09;2393933;28;46175;-78
2022/04/26 04:45:18;;;;;;;;;46.75;38.50;;;;;11.68;58.06;101458.72;2394213;28;44857;-80
2022/04/26 04:46:29;;;;;;;;;53.25;42.50;;;;;11.69;58.15;101467.50;2394274;28;45429;-76
2022/04/26 04:47:39;;;;;;;;;54.75;40.50;;;;;11.70;58.19;101470.09;2397562;28;45361;-77
2022/04/26 04:48:50;;;;;;;;;55.75;42.50;;;;;11.71;58.29;101470.97;2403041;28;45344;-77
2022/04/26 04:50:00;;;;;;;;;54.50;43.00;;;;;11.70;58.47;101462.19;2384780;28;45239;-76
2022/04/26 04:51:10;;;;;;;;;50.50;41.50;;;;;11.71;58.31;101468.31;2398177;28;45326;-77
2022/04/26 04:52:21;;;;;;;;;52.75;41.00;;;;;11.72;58.40;101475.34;2400085;28;45396;-76
2022/04/26 04:53:31;;;;;;;;;51.50;42.25;;;;;11.71;58.50;101470.97;2400854;28;45394;-76
2022/04/26 04:54:42;;;;;;;;;52.75;42.25;;;;;11.73;58.20;101473.56;2394335;28;45345;-77
2022/04/26 04:55:52;;;;;;;;;58.50;45.25;;;;;11.72;58.36;101472.69;2393945;28;46252;-77
2022/04/26 04:57:04;;;;;;;;;52.00;41.75;;;;;11.75;58.47;101471.75;2394100;28;45211;-76
2022/04/26 04:58:14;;;;;;;;;52.50;41.00;;;;;11.76;57.84;101470.84;2394121;28;45303;-77
2022/04/26 04:59:27;;;;;;;;;53.00;41.50;;;;;11.75;58.47;101477.91;2392517;28;45277;-77
2022/04/26 05:00:37;;;;;;;;;58.00;44.00;;;;;11.73;58.11;101477.03;2394269;28;45557;-76
2022/04/26 05:01:48;;;;;;;;;56.50;43.75;;;;;11.73;58.13;101484.09;2401355;28;45294;-76
2022/04/26 05:02:58;;;;;;;;;59.25;46.50;;;;;11.70;58.43;101485.88;2388969;28;47149;-77
2022/04/26 05:04:08;;;;;;;;;53.25;40.25;;;;;11.70;58.54;101475.34;2386063;28;45250;-75
2022/04/26 05:05:19;;;;;;;;;60.50;44.75;;;;;11.71;58.23;101486.75;2404781;28;45421;-76
2022/04/26 05:06:29;;;;;;;;;56.00;44.75;;;;;11.70;58.42;101485.06;2403798;28;45461;-76
2022/04/26 05:07:40;;;;;;;;;54.25;41.75;;;;;11.72;58.59;101492.91;2395150;28;45294;-76
2022/04/26 05:08:50;;;;;;;;;52.50;41.00;;;;;11.72;58.62;101491.13;2403299;28;45335;-76
2022/04/26 05:10:00;;;;;;;;;57.50;43.25;;;;;11.74;58.48;101491.09;2403120;28;45535;-75
2022/04/26 05:11:11;;;;;;;;;54.75;43.50;;;;;11.74;58.37;101494.59;2402850;28;45509;-75
2022/04/26 05:12:21;;;;;;;;;52.75;43.00;;;;;11.72;58.59;101495.53;2403278;28;46621;-75
2022/04/26 05:13:32;;;;;;;;;49.25;39.00;;;;;11.70;58.42;101496.41;2403406;28;45227;-76
2022/04/26 05:14:42;;;;;;;;;56.00;45.00;;;;;11.69;58.58;101502.59;2403097;28;46527;-76
2022/04/26 05:15:53;;;;;;;;;56.50;43.25;;;;;11.70;58.60;101499.06;2403458;28;45223;-76
2022/04/26 05:17:03;;;;;;;;;50.75;42.50;;;;;11.69;58.58;101499.97;2403024;28;46210;-76
2022/04/26 05:18:14;;;;;;;;;56.25;43.25;;;;;11.69;58.53;101497.34;2403623;28;44602;-76
2022/04/26 05:19:24;;;;;;;;;56.50;43.25;;;;;11.68;58.65;101503.50;2406137;28;46431;-76
2022/04/26 05:20:35;;;;;;;;;53.25;42.25;;;;;11.68;58.81;101503.50;2411867;28;45195;-76
2022/04/26 05:21:46;;;;;;;;;56.75;44.00;;;;;11.68;58.73;101503.50;2403260;28;46379;-76
2022/04/26 05:25:54;;;;;;;;;55.25;44.75;;;;;11.72;58.87;101513.97;2403464;28;45231;-76
2022/04/26 05:27:05;;;;;;;;;53.50;42.75;;;;;11.70;58.88;101521.91;2403169;28;46245;-76
2022/04/26 05:28:15;;;;;;;;;54.50;43.00;;;;;11.70;58.75;101514.84;2403598;28;44732;-76
2022/04/26 05:29:25;;;;;;;;;54.00;43.75;;;;;11.68;58.53;101524.56;2402781;28;45235;-76
2022/04/26 05:30:36;;;;;;;;;53.50;41.75;;;;;11.67;58.69;101514.97;2405746;28;45416;-76
2022/04/26 05:31:46;;;;;;;;;59.25;44.50;;;;;11.66;58.67;101520.25;2403260;28;46189;-75
2022/04/26 05:32:56;;;;;;;;;60.00;47.25;;;;;11.66;58.89;101525.50;2402443;28;44606;-76
2022/04/26 05:34:07;;;;;;;;;59.00;46.25;;;;;11.65;59.16;101526.44;2409649;28;46324;-75
2022/04/26 05:35:18;;;;;;;;;60.25;47.00;;;;;11.68;59.26;101532.47;2408295;28;45243;-76
2022/04/26 05:36:29;;;;;;;;;60.25;46.75;;;;;11.67;59.13;101525.50;2402728;28;46321;-76
2022/04/26 05:37:39;;;;;;;;;56.75;42.25;;;;;11.67;59.03;101528.13;2403326;28;44703;-77
2022/04/26 05:38:50;;;;;;;;;59.50;47.00;;;;;11.69;59.22;101534.22;2409145;28;46853;-77
2022/04/26 05:40:04;;;;;;;;;60.50;47.50;;;;;11.69;59.21;101531.56;2404682;28;45409;-77
2022/04/26 05:41:14;;;;;;;;;56.75;45.00;;;;;11.71;59.45;101528.91;2401725;28;46480;-77
2022/04/26 05:42:25;;;;;;;;;62.25;48.75;;;;;11.76;59.33;101534.03;2401069;28;45297;-77
2022/04/26 05:43:35;;;;;;;;;69.75;49.75;;;;;11.76;59.38;101531.41;2402168;28;45458;-77
2022/04/26 05:44:45;;;;;;;;;68.00;51.50;;;;;11.77;59.12;101535.78;2395714;28;45168;-77
2022/04/26 05:45:56;;;;;;;;;66.50;50.50;;;;;11.78;59.13;101535.75;2401995;28;46694;-77
2022/04/26 05:47:07;;;;;;;;;69.50;50.75;;;;;11.79;58.97;101541.88;2402086;28;44845;-77
2022/04/26 05:48:18;;;;;;;;;61.50;46.75;;;;;11.79;59.00;101539.25;2396918;28;45658;-76
2022/04/26 05:49:29;;;;;;;;;65.25;50.50;;;;;11.79;59.12;101536.59;2400132;28;45442;-77
2022/04/26 05:50:41;;;;;;;;;71.00;52.75;;;;;11.77;59.24;101551.59;2401985;28;45687;-77
2022/04/26 05:51:51;;;;;;;;;63.25;50.50;;;;;11.74;59.17;101539.38;2394928;28;45322;-76
2022/04/26 05:53:01;;;;;;;;;64.75;48.75;;;;;11.74;59.28;101542.00;2395337;28;46108;-77
2022/04/26 05:54:12;;;;;;;;;63.75;47.75;;;;;11.75;59.30;101543.75;2402458;28;45400;-76
2022/04/26 05:55:22;;;;;;;;;63.25;50.50;;;;;11.75;59.39;101546.38;2403821;28;45498;-76
2022/04/26 05:56:33;;;;;;;;;66.75;50.50;;;;;11.77;59.49;101546.31;2394246;28;45301;-76
2022/04/26 05:57:44;;;;;;;;;62.00;48.25;;;;;11.77;59.40;101554.22;2401781;28;45549;-77
2022/04/26 05:58:54;;;;;;;;;62.50;48.50;;;;;11.78;58.90;101550.66;2402286;28;44704;-76
2022/04/26 06:00:07;;;;;;;;;62.75;49.25;;;;;11.76;59.29;101553.34;2398583;28;45433;-76
2022/04/26 06:01:17;;;;;;;;;60.75;47.25;;;;;11.77;59.29;101546.31;2402487;28;44752;-76
2022/04/26 06:02:27;;;;;;;;;67.75;52.00;;;;;11.77;59.13;101551.59;2401986;28;45621;-77
2022/04/26 06:03:38;;;;;;;;;61.50;47.00;;;;;11.74;59.32;101549.91;2401393;28;45609;-77
2022/04/26 06:04:48;;;;;;;;;69.50;53.75;;;;;11.75;59.43;101561.31;2396831;28;45502;-76
2022/04/26 06:05:59;;;;;;;;;60.25;46.00;;;;;11.75;59.07;101556.03;2401990;28;45389;-76
2022/04/26 06:07:09;;;;;;;;;72.00;53.00;;;;;11.75;59.37;101556.03;2401886;28;45439;-76
2022/04/26 06:08:19;;;;;;;;;67.25;50.75;;;;;11.77;59.56;101551.59;2399496;28;45522;-76
2022/04/26 06:09:30;;;;;;;;;70.00;52.75;;;;;11.79;59.19;101558.56;2403073;28;46964;-76
2022/04/26 06:10:40;;;;;;;;;75.50;52.75;;;;;11.81;59.36;101551.47;2401082;28;45352;-76
2022/04/26 06:11:51;;;;;;;;;61.00;48.25;;;;;11.83;59.34;101556.69;2398667;28;45380;-76
2022/04/26 06:13:01;;;;;;;;;66.25;49.00;;;;;11.86;59.46;101550.47;2402004;28;44909;-76
2022/04/26 06:14:12;;;;;;;;;66.50;51.25;;;;;11.89;59.51;101556.56;2406230;28;45460;-76
2022/04/26 06:15:22;;;;;;;;;68.00;51.50;;;;;11.91;59.42;101554.75;2411862;28;45420;-76
2022/04/26 06:16:32;;;;;;;;;70.75;50.50;;;;;11.96;59.22;101553.75;2407105;28;45569;-76
2022/04/26 06:17:43;;;;;;;;;67.50;54.00;;;;;11.98;59.24;101554.56;2405365;28;45664;-76
2022/04/26 06:18:54;;;;;;;;;63.50;50.50;;;;;12.00;59.05;101553.63;2410868;28;45219;-76
2022/04/26 06:20:05;;;;;;;;;70.25;52.00;;;;;12.02;58.86;101554.47;2393591;28;45294;-76
2022/04/26 06:21:15;;;;;;;;;68.75;53.50;;;;;12.04;59.11;101552.66;2400091;28;46451;-76
2022/04/26 06:22:26;;;;;;;;;67.25;51.25;;;;;12.09;59.55;101551.66;2402998;28;45442;-76
2022/04/26 06:23:36;;;;;;;;;70.00;54.75;;;;;12.09;59.01;101555.16;2402395;28;45386;-76
2022/04/26 06:24:49;;;;;;;;;72.50;54.25;;;;;12.09;59.48;101559.56;2395104;28;45271;-75
2022/04/26 06:26:00;;;;;;;;;67.75;51.75;;;;;12.12;59.13;101555.06;2402553;28;45649;-76
2022/04/26 06:27:11;;;;;;;;;69.50;53.00;;;;;12.15;58.98;101555.03;2402921;28;45396;-77
2022/04/26 06:28:21;;;;;;;;;70.75;51.75;;;;;12.18;58.69;101547.94;2402761;28;45432;-76
2022/04/26 06:29:32;;;;;;;;;77.25;51.50;;;;;12.22;59.09;101547.81;2392520;28;45392;-76
2022/04/26 06:30:42;;;;;;;;;71.25;52.00;;;;;12.26;59.19;101552.13;2396746;28;45471;-76
2022/04/26 06:31:53;;;;;;;;;67.75;54.00;;;;;12.30;58.84;101552.88;2411443;28;45243;-76
2022/04/26 06:33:03;;;;;;;;;68.50;53.25;;;;;12.35;58.90;101553.63;2409593;28;45319;-76
2022/04/26 06:34:14;;;;;;;;;67.75;51.50;;;;;12.40;59.11;101552.63;2393491;28;45274;-76
2022/04/26 06:35:25;;;;;;;;;69.25;53.75;;;;;12.45;58.97;101556.00;2400587;28;45667;-76
2022/04/26 06:36:36;;;;;;;;;61.50;49.00;;;;;12.47;58.79;101557.69;2402869;28;44597;-77
2022/04/26 06:37:46;;;;;;;;;68.75;52.75;;;;;12.54;58.50;101557.53;2402475;28;45255;-77
2022/04/26 06:38:56;;;;;;;;;61.50;47.75;;;;;12.57;58.56;101557.44;2403044;28;45223;-77
2022/04/26 06:40:07;;;;;;;;;67.75;52.00;;;;;12.59;58.16;101563.53;2402685;28;45230;-76
2022/04/26 06:41:18;;;;;;;;;66.50;51.75;;;;;12.61;58.27;101561.72;2392543;28;45184;-77
2022/04/26 06:42:29;;;;;;;;;64.25;49.75;;;;;12.65;58.49;101567.75;2391576;28;47998;-77
2022/04/26 06:43:39;;;;;;;;;62.75;49.25;;;;;12.68;58.12;101565.03;2403116;28;45293;-77
2022/04/26 06:44:49;;;;;;;;;66.50;47.25;;;;;12.69;58.07;101567.63;2410108;28;45404;-76
2022/04/26 06:46:00;;;;;;;;;67.75;50.75;;;;;12.71;58.00;101565.84;2393390;28;45315;-76
2022/04/26 06:47:11;;;;;;;;;62.25;50.25;;;;;12.73;57.93;101567.53;2400020;28;45496;-76
2022/04/26 06:48:21;;;;;;;;;62.75;49.50;;;;;12.74;57.75;101564.84;2402740;28;45278;-76
2022/04/26 06:49:32;;;;;;;;;61.25;49.50;;;;;12.77;57.78;101571.81;2402705;28;46273;-77
2022/04/26 06:50:43;;;;;;;;;68.50;52.75;;;;;12.78;57.90;101569.16;2402575;28;45409;-76
2022/04/26 06:51:53;;;;;;;;;72.00;52.25;;;;;12.79;57.79;101576.13;2391904;28;47124;-76
2022/04/26 06:53:05;;;;;;;;;67.75;50.50;;;;;12.82;57.70;101581.34;2397121;28;45304;-76
2022/04/26 06:54:15;;;;;;;;;63.75;48.50;;;;;12.81;57.56;101577.00;2400682;28;46559;-76
2022/04/26 06:55:25;;;;;;;;;72.75;51.75;;;;;12.85;58.13;101579.50;2409348;28;45219;-76
2022/04/26 06:56:36;;;;;;;;;69.50;51.25;;;;;12.86;57.61;101579.50;2402458;28;46077;-76
2022/04/26 06:57:46;;;;;;;;;64.00;49.75;;;;;12.86;57.75;101573.34;2402112;28;44927;-77
2022/04/26 06:58:57;;;;;;;;;63.75;51.75;;;;;12.85;57.77;101575.09;2402581;28;45427;-76
2022/04/26 07:00:09;;;;;;;;;62.50;50.00;;;;;12.87;57.78;101577.69;2402607;28;45223;-77
2022/04/26 07:01:19;;;;;;;;;63.25;51.00;;;;;12.89;57.77;101575.91;2402068;28;45432;-76
2022/04/26 07:02:30;;;;;;;;;70.50;50.00;;;;;12.90;57.65;101581.13;2392448;28;45677;-77
2022/04/26 07:03:40;;;;;;;;;71.75;51.00;;;;;12.93;57.76;101580.16;2395317;28;45345;-76
2022/04/26 07:04:50;;;;;;;;;69.25;51.00;;;;;12.93;57.95;101580.16;2396427;28;45326;-76
2022/04/26 07:06:01;;;;;;;;;66.00;51.00;;;;;12.96;57.81;101577.44;2401059;28;45461;-77
2022/04/26 07:07:11;;;;;;;;;64.50;50.25;;;;;12.99;57.42;101576.50;2404446;28;45476;-77
2022/04/26 07:08:21;;;;;;;;;68.50;51.50;;;;;13.00;57.39;101580.84;2404130;28;45429;-77
2022/04/26 07:09:32;;;;;;;;;68.00;50.50;;;;;13.02;57.35;101582.53;2403751;28;45294;-77
2022/04/26 07:10:42;;;;;;;;;69.75;52.00;;;;;13.05;57.57;101582.44;2400526;28;46093;-77
2022/04/26 07:11:53;;;;;;;;;64.25;49.50;;;;;13.06;57.33;101583.31;2404275;28;45366;-77
2022/04/26 07:13:03;;;;;;;;;65.75;51.75;;;;;13.08;57.40;101586.78;2403811;28;46225;-77
2022/04/26 07:14:14;;;;;;;;;61.50;48.50;;;;;13.13;57.38;101594.53;2393745;28;45293;-76
2022/04/26 07:15:25;;;;;;;;;67.25;49.50;;;;;13.14;57.16;101594.47;2398478;28;45239;-76
2022/04/26 07:16:35;;;;;;;;;67.75;52.50;;;;;13.15;57.13;101588.31;2392659;28;45317;-76
2022/04/26 07:17:46;;;;;;;;;69.00;48.25;;;;;13.20;56.58;101587.28;2396040;28;45403;-76
2022/04/26 07:18:56;;;;;;;;;66.25;50.25;;;;;13.22;56.74;101596.91;2405273;28;45385;-76
2022/04/26 07:20:08;;;;;;;;;62.75;49.50;;;;;13.23;56.60;101598.63;2403987;28;45364;-76
2022/04/26 07:21:19;;;;;;;;;64.25;49.00;;;;;13.21;56.49;101595.16;2402007;28;45617;-76
2022/04/26 07:22:30;;;;;;;;;65.25;47.25;;;;;13.22;56.34;101599.53;2404050;28;45391;-76
2022/04/26 07:23:40;;;;;;;;;60.25;47.00;;;;;13.23;56.70;101601.28;2404039;28;44782;-76
2022/04/26 07:24:51;;;;;;;;;56.25;45.75;;;;;13.27;56.61;101600.25;2404164;28;45373;-76
2022/04/26 07:26:01;;;;;;;;;65.25;48.50;;;;;13.28;56.35;101601.13;2404171;28;45361;-76
2022/04/26 07:27:12;;;;;;;;;59.50;47.00;;;;;13.31;56.46;101598.38;2403704;28;46147;-76
2022/04/26 07:28:22;;;;;;;;;61.50;48.00;;;;;13.34;56.55;101597.41;2404218;28;45272;-76
2022/04/26 07:29:33;;;;;;;;;62.25;48.50;;;;;13.36;56.39;101592.94;2393094;28;47169;-76
2022/04/26 07:30:44;;;;;;;;;64.50;47.50;;;;;13.37;56.65;101606.13;2400677;28;45444;-76
2022/04/26 07:31:54;;;;;;;;;61.75;49.25;;;;;13.39;56.40;101600.78;2407918;28;45255;-76
2022/04/26 07:34:35;;;;;;;;;66.50;52.25;;;;;13.47;56.33;101603.19;2399577;28;45267;-77
2022/04/26 07:35:46;;;;;;;;;60.50;47.50;;;;;13.47;55.83;101597.91;2404335;28;45222;-76
2022/04/26 07:36:59;;;;;;;;;60.75;44.25;;;;;13.48;55.49;101602.28;2403622;28;45384;-77
2022/04/26 07:38:10;;;;;;;;;61.25;44.50;;;;;13.49;55.78;101606.66;2400966;28;45230;-76
2022/04/26 07:39:20;;;;;;;;;59.50;44.75;;;;;13.49;55.64;101611.94;2395937;28;45643;-76
2022/04/26 07:40:32;;;;;;;;;52.00;43.00;;;;;13.52;55.39;101617.13;2392060;28;45232;-76
2022/04/26 07:41:43;;;;;;;;;62.00;43.50;;;;;13.53;55.80;101612.72;2396783;28;45641;-76
2022/04/26 07:42:55;;;;;;;;;64.50;48.00;;;;;13.55;55.58;101610.88;2404225;28;44574;-76
2022/04/26 07:44:05;;;;;;;;;58.00;45.50;;;;;13.55;55.62;101611.75;2403866;28;45371;-76
2022/04/26 07:45:16;;;;;;;;;59.00;45.75;;;;;13.57;55.86;101609.94;2403914;28;45243;-76
2022/04/26 07:46:26;;;;;;;;;59.50;46.75;;;;;13.59;55.46;101615.19;2403538;28;45230;-76
2022/04/26 07:47:36;;;;;;;;;60.00;47.00;;;;;13.55;55.31;101616.16;2404167;28;45213;-76
2022/04/26 07:48:47;;;;;;;;;60.00;46.25;;;;;13.54;55.09;101614.41;2403833;28;45293;-76
2022/04/26 07:49:58;;;;;;;;;57.25;45.75;;;;;13.52;55.22;101617.13;2403687;28;45214;-76
2022/04/26 07:51:09;;;;;;;;;63.75;48.50;;;;;13.53;55.45;101618.84;2403967;28;45845;-76
2022/04/26 07:52:21;;;;;;;;;61.00;44.00;;;;;13.54;55.37;101619.69;2397591;28;46293;-76
2022/04/26 07:53:32;;;;;;;;;54.50;44.75;;;;;13.52;55.29;101626.81;2410386;28;46382;-76
2022/04/26 07:54:42;;;;;;;;;60.50;45.75;;;;;13.54;55.43;101630.28;2408001;28;44678;-76
2022/04/26 07:55:52;;;;;;;;;61.25;45.50;;;;;13.53;55.28;101625.91;2397310;28;46559;-76
2022/04/26 07:57:03;;;;;;;;;61.25;48.00;;;;;13.54;55.58;101630.28;2404074;28;45199;-76
2022/04/26 07:58:13;;;;;;;;;58.50;45.00;;;;;13.56;55.48;101636.38;2407286;28;45403;-76
2022/04/26 07:59:25;;;;;;;;;58.75;45.75;;;;;13.57;55.49;101630.22;2405763;28;45180;-76
2022/04/26 08:00:36;;;;;;;;;52.00;39.50;;;;;13.60;55.14;101632.78;2403313;28;46474;-77
2022/04/26 08:01:46;;;;;;;;;61.00;44.25;;;;;13.63;55.33;101634.44;2403993;28;45218;-76
2022/04/26 08:02:56;;;;;;;;;63.25;45.75;;;;;13.64;55.17;101631.75;2403717;28;45394;-76
2022/04/26 08:04:07;;;;;;;;;64.00;47.25;;;;;13.67;55.68;101630.78;2403886;28;44647;-76
2022/04/26 08:05:17;;;;;;;;;60.75;45.75;;;;;13.72;54.88;101636.78;2403262;28;45235;-76
2022/04/26 08:06:28;;;;;;;;;56.50;42.25;;;;;13.74;54.30;101632.31;2402348;28;44998;-76
2022/04/26 08:07:39;;;;;;;;;59.00;45.25;;;;;13.76;54.80;101640.19;2403600;28;46154;-76
2022/04/26 08:08:50;;;;;;;;;56.00;43.00;;;;;13.81;54.99;101643.53;2403823;28;45297;-76
2022/04/26 08:10:00;;;;;;;;;57.75;45.75;;;;;13.82;54.55;101642.66;2403702;28;46106;-76
2022/04/26 08:11:14;;;;;;;;;58.25;43.75;;;;;13.84;54.18;101646.97;2403905;28;45321;-76
2022/04/26 08:12:24;;;;;;;;;60.50;44.75;;;;;13.82;54.20;101645.28;2400851;28;46486;-76
2022/04/26 08:13:35;;;;;;;;;59.50;44.75;;;;;13.80;54.49;101639.19;2413493;28;45320;-76
2022/04/26 08:14:45;;;;;;;;;62.25;46.00;;;;;13.80;54.33;101647.97;2404352;28;46443;-76
2022/04/26 08:15:55;;;;;;;;;56.00;44.00;;;;;13.81;54.56;101644.41;2402095;28;45297;-76
2022/04/26 08:17:06;;;;;;;;;53.75;42.50;;;;;13.80;54.19;101640.03;2394253;28;46879;-76
2022/04/26 08:18:17;;;;;;;;;57.50;44.25;;;;;13.80;54.31;101647.97;2402009;28;45187;-76
2022/04/26 08:19:27;;;;;;;;;57.25;43.75;;;;;13.82;54.34;101647.94;2403605;28;45566;-76
2022/04/26 08:20:38;;;;;;;;;60.25;46.25;;;;;13.81;54.01;101657.63;2403832;28;45183;-76
2022/04/26 08:21:48;;;;;;;;;58.75;42.75;;;;;13.80;54.24;101652.41;2403217;28;46472;-76
2022/04/26 08:22:59;;;;;;;;;56.25;43.50;;;;;13.81;54.22;101648.81;2403565;28;45215;-76
2022/04/26 08:27:25;;;;;;;;;61.50;48.00;;;;;13.86;54.57;101656.59;2403728;28;45235;-76
2022/04/26 08:28:35;;;;;;;;;57.50;43.75;;;;;13.87;54.27;101648.66;2402784;28;44709;-76
2022/04/26 08:29:46;;;;;;;;;56.75;43.75;;;;;13.89;54.15;101652.09;2404521;28;46858;-76
2022/04/26 08:30:57;;;;;;;;;57.00;45.75;;;;;13.92;54.01;101652.00;2403450;28;45243;-76
2022/04/26 08:32:07;;;;;;;;;58.25;43.25;;;;;13.95;54.00;101658.97;2403559;28;46171;-76
2022/04/26 08:33:17;;;;;;;;;56.25;44.00;;;;;13.96;54.28;101647.47;2403778;28;45298;-76
2022/04/26 08:34:28;;;;;;;;;61.25;46.25;;;;;14.00;54.06;101653.53;2403482;28;46571;-76
2022/04/26 08:35:38;;;;;;;;;60.25;44.50;;;;;14.03;54.02;101653.41;2403624;28;45327;-75
2022/04/26 08:36:49;;;;;;;;;60.00;45.25;;;;;14.03;53.58;101651.66;2403560;28;45265;-75
2022/04/26 08:37:59;;;;;;;;;54.50;43.25;;;;;14.05;53.37;101657.72;2393270;28;44760;-76
2022/04/26 08:39:09;;;;;;;;;58.75;43.00;;;;;14.06;53.42;101663.91;2396105;28;45315;-76
2022/04/26 08:40:20;;;;;;;;;58.25;45.00;;;;;14.06;53.40;101661.25;2403455;28;44755;-76
2022/04/26 08:41:30;;;;;;;;;55.50;45.25;;;;;14.06;53.45;101663.91;2403492;28;45402;-76
2022/04/26 08:42:46;;;;;;;;;60.75;45.75;;;;;14.04;53.36;101666.59;2403776;28;45296;-75
2022/04/26 08:43:57;;;;;;;;;58.25;46.00;;;;;14.05;53.43;101663.03;2412210;28;47218;-77
2022/04/26 08:45:10;;;;;;;;;61.75;45.00;;;;;14.05;53.49;101662.19;2407539;28;45484;-76
2022/04/26 08:46:21;;;;;;;;;58.00;44.50;;;;;14.03;53.41;101664.84;2401437;28;46356;-76
2022/04/26 08:52:02;;;;;;;;;62.50;47.25;;;;;14.01;53.25;101671.97;2403582;28;45470;-76
2022/04/26 08:53:17;;;;;;;;;55.75;44.00;;;;;14.02;53.49;101671.06;2408395;28;45645;-75
2022/04/26 08:54:30;;;;;;;;;58.00;45.50;;;;;14.03;53.28;101670.16;2398499;28;47403;-77
2022/04/26 08:55:42;;;;;;;;;58.75;47.00;;;;;14.05;53.27;101678.03;2396270;28;45308;-76
2022/04/26 08:56:52;;;;;;;;;56.75;43.75;;;;;14.03;52.97;101678.06;2383894;28;47342;-76
2022/04/26 08:58:03;;;;;;;;;63.75;47.50;;;;;14.01;53.06;101684.31;2393654;28;45264;-76
2022/04/26 08:59:13;;;;;;;;;55.25;45.00;;;;;14.02;53.41;101683.41;2402839;28;45323;-77
2022/04/26 09:00:24;;;;;;;;;59.25;45.50;;;;;14.04;53.40;101690.38;2406442;28;45486;-77
2022/04/26 09:01:34;;;;;;;;;63.50;45.50;;;;;14.03;53.10;101691.28;2409239;28;45291;-77
2022/04/26 09:03:04;;;;;;;;;61.25;46.00;;;;;14.04;53.03;101686.88;2403572;28;45241;-77
2022/04/26 09:04:17;;;;;;;;;54.75;43.00;;;;;14.08;52.88;101688.50;2397877;28;46083;-77
2022/04/26 09:05:27;;;;;;;;;55.75;44.00;;;;;14.11;52.82;101692.81;2386990;28;44870;-76
2022/04/26 09:06:40;;;;;;;;;53.50;42.00;;;;;14.10;52.55;101689.31;2396116;28;45551;-76
2022/04/26 09:07:50;;;;;;;;;54.50;43.00;;;;;14.10;52.83;101697.22;2403290;28;45332;-77
2022/04/26 09:09:12;;;;;;;;;55.25;42.00;;;;;14.11;52.51;101691.03;2403878;28;46219;-76
2022/04/26 09:10:22;;;;;;;;;53.75;39.25;;;;;14.12;52.07;101691.91;2403502;28;45211;-77